createdAt,value
2018-04-08T12:22:35.227Z,38.70
2018-04-08T12:26:48.139Z,37.50
2018-04-08T12:28:53.019Z,34.50
2018-04-08T12:33:04.074Z,34.30
2018-04-08T12:36:11.670Z,31.50
2018-04-08T12:46:40.704Z,33.40
2018-04-08T12:51:55.209Z,31.50
2018-04-08T12:57:09.225Z,31.80
2018-04-08T13:07:41.654Z,30.60
2018-04-08T13:15:05.553Z,32.10
2018-04-08T13:23:31.331Z,30.50
2018-04-08T13:24:33.055Z,31.20
2018-04-08T13:25:35.590Z,30.90
2018-04-08T13:26:38.675Z,29.00
2018-04-08T13:29:48.607Z,28.90
2018-04-08T13:30:50.288Z,29.90
2018-04-08T13:33:59.569Z,28.90
2018-04-08T13:37:09.596Z,28.20
2018-04-08T13:40:18.337Z,29.10
2018-04-08T13:43:27.059Z,30.00
2018-04-08T13:44:29.429Z,29.10
2018-04-08T13:46:34.467Z,28.80
2018-04-08T13:47:36.095Z,29.80
2018-04-08T13:51:48.461Z,28.40
2018-04-08T13:56:00.468Z,27.60
2018-04-08T13:59:09.274Z,27.70
2018-04-08T14:04:24.566Z,28.80
2018-04-08T14:06:29.652Z,28.50
2018-04-08T14:09:39.518Z,28.90
2018-04-08T14:11:44.447Z,27.70
2018-04-08T14:12:46.065Z,28.30
2018-04-08T14:14:51.135Z,30.50
2018-04-08T14:16:56.505Z,30.40
2018-04-08T14:31:19.299Z,32.70
2018-04-08T14:32:21.045Z,31.80
2018-04-08T14:33:22.647Z,32.10
2018-04-08T14:37:34.933Z,31.40
2018-04-08T14:40:43.634Z,32.80
2018-04-08T14:43:52.406Z,32.20
2018-04-08T14:54:26.870Z,33.30
2018-04-08T15:01:49.475Z,33.10
2018-04-08T15:10:15.592Z,33.70
2018-04-08T15:12:20.979Z,33.90
2018-04-08T15:18:40.619Z,33.90
2018-04-08T15:19:42.400Z,30.30
2018-04-08T15:28:08.497Z,34.80
2018-04-08T15:41:53.318Z,35.80
2018-04-08T15:50:19.997Z,35.50
2018-04-08T15:58:46.961Z,34.60
2018-04-08T16:00:52.354Z,35.10
2018-04-08T16:16:27.924Z,35.90
2018-04-08T16:24:01.268Z,35.90
2018-04-08T16:26:26.398Z,35.70
2018-04-08T16:30:35.491Z,35.50
2018-04-08T16:34:39.183Z,35.50
2018-04-08T16:37:47.523Z,35.30
2018-04-08T16:39:52.827Z,35.30
2018-04-08T16:51:20.820Z,35.80
2018-04-08T17:00:53.869Z,36.60
2018-04-08T17:08:32.235Z,36.80
2018-04-08T17:09:34.623Z,37.00
2018-04-08T17:11:39.684Z,37.20
2018-04-08T17:12:41.340Z,37.30
2018-04-08T17:13:43.058Z,37.30
2018-04-08T17:15:48.098Z,37.60
2018-04-08T17:25:04.356Z,38.30
2018-04-08T17:32:54.206Z,37.30
2018-04-08T17:36:02.050Z,37.50
2018-04-08T17:37:05.606Z,37.60
2018-04-08T17:38:29.682Z,37.90
2018-04-08T17:44:53.726Z,38.50
2018-04-08T18:13:02.784Z,38.10
2018-04-08T18:14:05.908Z,38.10
2018-04-08T18:15:07.452Z,38.10
2018-04-08T18:16:09.862Z,38.10
2018-04-08T18:17:29.752Z,38.20
2018-04-08T18:20:37.622Z,38.60
2018-04-08T18:21:39.211Z,39.00
2018-04-08T18:27:56.676Z,39.20
2018-04-08T18:28:59.670Z,39.00
2018-04-08T18:32:31.376Z,38.40
2018-04-08T18:34:36.084Z,38.10
2018-04-08T18:38:47.215Z,37.80
2018-04-08T18:40:52.768Z,37.30
2018-04-08T18:41:54.272Z,37.40
2018-04-08T18:42:56.062Z,37.20
2018-04-08T18:43:57.649Z,37.10
2018-04-08T18:45:00.582Z,36.80
2018-04-08T18:47:05.323Z,37.00
2018-04-08T18:53:53.516Z,37.20
2018-04-08T18:58:21.098Z,36.40
2018-04-08T18:59:23.744Z,36.40
2018-04-08T19:00:25.273Z,36.30
2018-04-08T19:09:39.439Z,34.60
2018-04-08T19:11:44.106Z,35.00
2018-04-08T19:12:46.346Z,35.40
2018-04-08T19:13:47.814Z,34.80
2018-04-08T19:16:34.945Z,34.40
2018-04-08T19:17:42.602Z,34.60
2018-04-08T19:18:44.808Z,34.70
2018-04-08T19:19:46.347Z,34.90
2018-04-08T19:20:47.834Z,34.70
2018-04-08T19:21:49.311Z,37.70
2018-04-08T19:24:58.677Z,34.10
2018-04-08T19:26:00.914Z,34.40
2018-04-08T19:27:02.422Z,34.50
2018-04-08T19:28:03.894Z,34.60
2018-04-08T19:30:14.630Z,34.80
2018-04-08T19:32:19.348Z,34.40
2018-04-08T19:33:20.854Z,34.60
2018-04-08T19:34:22.331Z,34.10
2018-04-08T19:35:23.830Z,33.40
2018-04-08T19:37:28.484Z,33.20
2018-04-08T19:39:33.896Z,33.60
2018-04-08T19:40:35.382Z,33.10
2018-04-08T19:41:37.938Z,32.60
2018-04-08T19:42:39.523Z,33.00
2018-04-08T19:44:44.295Z,31.70
2018-04-08T19:45:45.772Z,32.20
2018-04-08T19:47:50.438Z,30.40
2018-04-08T19:48:51.907Z,32.50
2018-04-08T19:49:53.417Z,33.10
2018-04-08T19:50:55.626Z,32.10
2018-04-08T19:53:00.320Z,31.10
2018-04-08T19:54:02.919Z,31.00
2018-04-08T19:55:04.396Z,31.60
2018-04-08T19:57:09.127Z,31.70
2018-04-08T19:58:10.615Z,31.80
2018-04-08T19:59:12.130Z,30.90
2018-04-08T20:00:13.610Z,31.10
2018-04-08T20:01:15.874Z,31.20
2018-04-08T20:02:18.162Z,30.60
2018-04-08T20:04:22.983Z,30.50
2018-04-08T20:05:24.455Z,30.30
2018-04-08T20:07:29.876Z,31.20
2018-04-08T20:08:31.367Z,30.90
2018-04-08T20:09:33.606Z,31.60
2018-04-08T20:10:35.111Z,31.10
2018-04-08T20:12:40.499Z,31.00
2018-04-08T20:13:41.962Z,30.90
2018-04-08T20:30:35.178Z,29.80
2018-04-08T20:31:37.456Z,29.90
2018-04-08T20:32:39.040Z,30.10
2018-04-08T20:33:40.531Z,30.30
2018-04-08T20:34:42.074Z,29.90
2018-04-08T20:35:43.583Z,30.00
2018-04-08T20:36:45.382Z,29.50
2018-04-08T20:37:47.562Z,28.90
2018-04-08T20:38:49.045Z,28.60
2018-04-08T20:39:50.574Z,28.90
2018-04-08T20:40:52.811Z,28.70
2018-04-08T20:41:54.330Z,28.90
2018-04-08T20:42:55.818Z,29.40
2018-04-08T20:43:58.102Z,28.70
2018-04-08T20:45:00.334Z,28.80
2018-04-08T20:46:02.618Z,28.50
2018-04-08T20:47:04.398Z,28.80
2018-04-08T20:48:07.374Z,28.30
2018-04-08T20:49:09.915Z,28.80
2018-04-08T20:50:11.458Z,28.50
2018-04-08T20:51:12.922Z,28.80
2018-04-08T20:52:14.430Z,28.80
2018-04-08T20:53:15.875Z,28.10
2018-04-08T20:54:18.790Z,27.70
2018-04-08T20:55:20.272Z,28.30
2018-04-08T20:56:23.232Z,28.20
2018-04-08T20:57:24.982Z,28.00
2018-04-08T20:58:26.490Z,26.60
2018-04-08T20:59:27.959Z,28.00
2018-04-08T21:00:30.184Z,28.00
2018-04-08T21:01:32.420Z,27.60
2018-04-08T21:02:33.962Z,27.50
2018-04-08T21:03:35.447Z,28.00
2018-04-08T21:04:36.915Z,28.20
2018-04-08T21:05:38.402Z,28.80
2018-04-08T21:06:40.631Z,28.40
2018-04-08T21:07:42.426Z,28.00
2018-04-08T21:08:44.665Z,27.90
2018-04-08T21:09:46.179Z,27.90
2018-04-08T21:10:47.640Z,27.80
2018-04-08T21:11:49.161Z,27.90
2018-04-08T21:12:51.379Z,27.70
2018-04-08T21:13:52.818Z,27.80
2018-04-08T21:14:54.274Z,27.90
2018-04-08T21:15:55.767Z,28.00
2018-04-08T21:16:57.234Z,28.10
2018-04-08T21:18:00.223Z,27.00
2018-04-08T21:19:02.431Z,26.90
2018-04-08T21:20:03.932Z,27.00
2018-04-08T21:21:06.167Z,27.20
2018-04-08T21:22:08.755Z,26.80
2018-04-08T21:23:10.232Z,27.20
2018-04-08T21:24:12.892Z,26.80
2018-04-08T21:25:14.399Z,27.30
2018-04-08T21:26:15.866Z,26.90
2018-04-08T21:27:17.329Z,27.10
2018-04-08T21:28:18.927Z,27.40
2018-04-08T21:29:21.147Z,27.30
2018-04-08T21:30:22.650Z,26.90
2018-04-08T21:31:24.879Z,27.30
2018-04-08T21:38:08.508Z,26.80
2018-04-08T21:39:10.730Z,26.80
2018-04-08T21:40:12.989Z,26.70
2018-04-08T21:41:14.490Z,26.60
2018-04-08T21:42:16.010Z,26.70
2018-04-08T21:43:17.520Z,26.60
2018-04-08T21:44:19.013Z,26.60
2018-04-08T21:45:20.571Z,26.50
2018-04-08T21:49:36.194Z,26.70
2018-04-08T21:50:38.426Z,26.70
2018-04-08T21:51:39.984Z,26.70
2018-04-08T21:52:41.512Z,26.50
2018-04-08T21:53:43.023Z,25.50
2018-04-08T21:54:45.234Z,26.20
2018-04-08T21:55:47.476Z,26.10
2018-04-08T21:56:48.986Z,26.60
2018-04-08T21:57:50.474Z,26.70
2018-04-08T21:58:51.908Z,26.20
2018-04-08T21:59:53.374Z,26.60
2018-04-08T22:00:54.834Z,26.70
2018-04-08T22:01:56.263Z,26.10
2018-04-08T22:02:57.719Z,26.10
2018-04-08T22:03:59.862Z,26.30
2018-04-08T22:05:01.339Z,25.90
2018-04-08T22:06:03.575Z,26.40
2018-04-08T22:07:05.018Z,26.30
2018-04-08T22:08:06.502Z,26.40
2018-04-08T22:09:07.906Z,26.00
2018-04-08T22:10:09.368Z,25.90
2018-04-08T22:11:10.808Z,26.00
2018-04-08T22:12:12.227Z,26.20
2018-04-08T22:13:14.379Z,25.90
2018-04-08T22:15:18.966Z,26.00
2018-04-08T22:16:21.128Z,25.70
2018-04-08T22:17:22.542Z,25.90
2018-04-08T22:19:27.970Z,25.60
2018-04-08T22:21:33.569Z,26.00
2018-04-08T22:22:35.458Z,26.00
2018-04-08T22:23:37.278Z,26.00
2018-04-08T22:24:38.715Z,25.70
2018-04-08T22:25:40.523Z,25.60
2018-04-08T22:26:41.959Z,25.70
2018-04-08T22:27:43.827Z,25.60
2018-04-08T22:28:46.047Z,25.90
2018-04-08T22:30:45.674Z,25.90
2018-04-08T22:31:47.098Z,26.00
2018-04-08T22:32:48.582Z,25.20
2018-04-08T22:33:49.985Z,25.40
2018-04-08T22:34:51.423Z,25.30
2018-04-08T22:35:54.351Z,25.30
2018-04-08T22:36:55.814Z,25.70
2018-04-08T22:37:57.246Z,25.70
2018-04-08T22:38:58.663Z,25.50
2018-04-08T22:40:00.099Z,25.80
2018-04-08T22:41:02.631Z,25.50
2018-04-08T22:42:04.079Z,25.50
2018-04-08T22:43:05.506Z,25.40
2018-04-08T22:44:06.938Z,25.70
2018-04-08T22:45:08.384Z,25.70
2018-04-08T22:46:30.171Z,25.70
2018-04-08T22:47:31.597Z,25.50
2018-04-08T22:48:33.063Z,25.70
2018-04-08T22:49:34.847Z,25.50
2018-04-08T22:50:36.302Z,25.90
2018-04-08T22:51:38.016Z,25.70
2018-04-08T22:52:39.723Z,25.40
2018-04-08T22:53:41.182Z,25.20
2018-04-08T22:54:42.622Z,25.50
2018-04-08T22:55:44.023Z,25.90
2018-04-08T22:56:45.707Z,26.00
2018-04-08T22:57:48.270Z,25.70
2018-04-08T22:58:49.702Z,26.10
2018-04-08T22:59:51.168Z,25.20
2018-04-08T23:00:52.662Z,25.50
2018-04-08T23:01:54.154Z,25.50
2018-04-08T23:02:55.618Z,25.70
2018-04-08T23:03:57.024Z,25.50
2018-04-08T23:04:58.442Z,25.40
2018-04-08T23:05:59.878Z,25.40
2018-04-08T23:07:02.443Z,25.30
2018-04-08T23:08:03.874Z,25.60
2018-04-08T23:09:06.101Z,26.00
2018-04-08T23:10:07.579Z,25.70
2018-04-08T23:11:09.811Z,26.10
2018-04-08T23:12:11.527Z,25.90
2018-04-08T23:13:13.715Z,26.10
2018-04-08T23:15:07.307Z,25.80
2018-04-08T23:16:08.755Z,25.90
2018-04-08T23:17:10.173Z,25.70
2018-04-08T23:19:15.151Z,25.70
2018-04-08T23:20:17.354Z,25.80
2018-04-08T23:21:18.791Z,26.00
2018-04-08T23:22:20.349Z,25.50
2018-04-08T23:23:22.043Z,26.10
2018-04-08T23:24:24.240Z,26.10
2018-04-08T23:25:25.747Z,26.30
2018-04-08T23:26:27.178Z,25.80
2018-04-08T23:27:28.597Z,26.10
2018-04-08T23:28:30.066Z,26.10
2018-04-08T23:29:31.488Z,26.30
2018-04-08T23:30:32.939Z,26.20
2018-04-08T23:31:34.354Z,26.20
2018-04-08T23:32:35.784Z,26.00
2018-04-08T23:33:37.259Z,26.30
2018-04-08T23:35:25.646Z,26.60
2018-04-08T23:37:26.169Z,26.30
2018-04-08T23:39:31.038Z,25.90
2018-04-08T23:40:32.474Z,25.70
2018-04-08T23:41:33.922Z,25.70
2018-04-08T23:42:35.346Z,25.80
2018-04-08T23:43:36.743Z,25.90
2018-04-08T23:44:39.310Z,26.10
2018-04-08T23:45:40.734Z,26.00
2018-04-08T23:46:42.159Z,25.80
2018-04-08T23:47:43.587Z,25.60
2018-04-08T23:48:45.023Z,25.50
2018-04-08T23:49:47.597Z,25.20
2018-04-08T23:50:49.764Z,25.50
2018-04-08T23:51:52.306Z,25.20
2018-04-08T23:52:53.731Z,25.40
2018-04-08T23:53:55.166Z,25.40
2018-04-08T23:54:56.591Z,25.40
2018-04-08T23:55:59.523Z,25.40
2018-04-08T23:57:00.986Z,25.70
2018-04-08T23:58:02.422Z,25.40
2018-04-08T23:59:03.898Z,25.70
